CYMHCYNA

Guest
Details From CYMH - Marys Harbour
To CYNA - NATASHQUAN
Flight Number -
Tags generated
Created
Modified
Stats Distance 259 nm / 480 km
Max Altitude 18,000 ft / 5,486 m
Waypoints 4
Social Downloads 0
Likes 0
Share VATSIM

Download

Looking for another format? Having issues loading an existing format? Contact us
Advertisement - Login to hide

Notes

Basic altitude profile: - Ascent Rate: 2500ft/min - Ascent Speed: 250kts - Cruise Altitude: 35000ft - Cruise Speed: 420kts - Descent Rate: 1500ft/min - Descent Speed: 250kts

Route

CYMH REDBY 5E17 YNA CYNA

ID Type Via Altitude Latitude Longitude Leg Dist Tot Dist Heading (true) Name
O CYMH APT - 0 ft / 0 m 52.30225˚ -55.84542˚ - 0 nm - Marys Harbour
REDBY FIX - 9,900 ft / 3,018 m 52.24944˚ -56.60166˚ 27 nm 27 nm 264° / 263° -
YNA VOR 5E17 (AWY-HI) 18,000 ft / 5,486 m 50.18361˚ -61.78083˚ 230 nm 258 nm 240° / 236° NATASH VOR-DME
O CYNA APT - 0 ft / 0 m 50.19008˚ -61.78895˚ 0 nm 259 nm 321° / 321° NATASHQUAN

Altitude Profile

Advertisement - Login to hide

Weather


0- 5 10 15 20 25 30 35+ Temperature / ° C

Clouds and Precipitation
Forecast for 2017-12-15 18:00 UTC. Updated an hour ago

Ground ~20,000 ft ~40,000 ft Winds

CYMH

Details ICAO CYMH (YMH)
Name Marys Harbour
Region Canada
Timezone America/St_Johns (UTC-3.5)
Stats Elevation 38 ft / 12 m (AMSL)
Location 52.302250° -55.845423°
Runways 1
Magnetic Variation 20.303° W

METAR

CYMH 151400Z AUTO 23017G30KT 180V250 9SM CLR M07/M13 A2909 RMK SLP853

Decode

TAF

TAF TAF CYMH 151340Z 1514/1602 22015G25KT P6SM SCT025 TEMPO 1514/1518 5SM -SHSN BKN025 BECMG 1514/1516 22020G35KT FM151800 23025G40KT P6SM BKN025 TEMPO 1518/1602 5SM -SN BKN020 RMK FCST BASED ON AUTO OBS. NXT FCST BY 152000Z

Decode

Departure Runways

ID Width Length Bearing (true) Bearing (mag) Surface Threshold Offset Overrun Length
11 98 ft / 30 m 2,549 ft / 777 m 85.00° 105.30° Gravel 0 ft / 0 m 0 ft / 0 m
29 98 ft / 30 m 2,549 ft / 777 m 265.01° 285.31° Gravel 0 ft / 0 m 0 ft / 0 m

CYNA

Details ICAO CYNA (YNA)
Name NATASHQUAN
Region Canada
Timezone America/Montreal (UTC-5.0)
Stats Elevation 39 ft / 12 m (AMSL)
Location 50.190084° -61.788947°
Runways 1
Magnetic Variation 19.464° W

METAR

CYNA 151437Z AUTO 24029G42KT 1 1/4SM -SN SCT020 BKN027 OVC032 M07/M10 A2923 RMK VIS VRB 5/8-2 1/2 SLP902

Decode

TAF

TAF AMD CYNA 151434Z 1514/1602 25025G40KT 6SM -SN BLSN FEW020 OVC040 TEMPO 1514/1523 1SM -SN BLSN BKN020 OVC040 FM152300 27020G30KT P6SM SCT030 RMK FCST BASED ON AUTO OBS. NXT FCST BY 152000Z

Decode

Destination Runways

ID Width Length Bearing (true) Bearing (mag) Surface Threshold Offset Overrun Length
14 100 ft / 30 m 4,486 ft / 1,367 m 117.90° 137.36° Asphalt 0 ft / 0 m 0 ft / 0 m
32 100 ft / 30 m 4,486 ft / 1,367 m 297.91° 317.37° Asphalt 0 ft / 0 m 0 ft / 0 m